Baependi, Brazil
Current Conditions -  °F | °C
As of 4:00 PM on Wednesday 26 Nov 2014 (Local Time) from SBGW Reporting Station
Rain Showers Rain Showers  
Wind Chill: 84°   Ceiling: 2000
Heat Index: 86°   Visibility: 6mi
Dew Point: 64°   Wind: 0mph
Humidity: 51%   Direction: NA
Pressure: 29.77"   Gusts: NA
Location:  21.96°S, 44.89°W
Report Text: SBGW 261800Z 00000KT 9999 VCSH FEW015 BKN020 FEW025TCU BKN070 29/18 Q1008
Loading
Personal Weather Stations






























Interactive Weather Map New forecast layout! Learn more

10-Day Weather Forecast

Advertisements
Track Severe Weather on mobile